Time;durP1;ratioP1;P1;durP2;ratioP2;P2;SDS_P1;SDS_P2;PMS_P1;PMS_P2;Temp;Humidity;BMP_temperature;BMP_pressure;BME280_temperature;BME280_humidity;BME280_pressure;Samples;Min_cycle;Max_cycle;Signal;HPM_P1;HPM_P2
2022/11/24 00:00:33;;;;;;;;;6.25;3.00;;;;;9.92;74.36;100308.59;5070838;28;45660;-64
2022/11/24 00:03:35;;;;;;;;;10.50;2.75;;;;;9.94;74.42;100302.47;5056103;28;45638;-67
2022/11/24 00:06:06;;;;;;;;;6.25;4.50;;;;;9.90;74.31;100295.50;5056386;28;45567;-65
2022/11/24 00:08:33;;;;;;;;;13.50;4.00;;;;;9.97;74.56;100296.34;5074321;28;45472;-63
2022/11/24 00:11:07;;;;;;;;;5.25;3.00;;;;;10.03;74.49;100305.94;5073298;28;45303;-62
2022/11/24 00:13:42;;;;;;;;;7.50;4.00;;;;;10.02;74.26;100304.19;5059204;28;45361;-68
2022/11/24 00:16:18;;;;;;;;;8.25;4.75;;;;;10.08;74.41;100319.88;5054719;28;45536;-65
2022/11/24 00:18:52;;;;;;;;;5.00;3.00;;;;;10.14;73.73;100310.25;5068416;28;45420;-66
2022/11/24 00:21:19;;;;;;;;;5.25;4.25;;;;;10.12;74.26;100316.38;5056841;28;45621;-62
2022/11/24 00:23:45;;;;;;;;;5.75;3.00;;;;;10.16;74.10;100323.34;5074189;28;45443;-64
2022/11/24 00:26:16;;;;;;;;;5.00;1.75;;;;;10.14;74.31;100317.25;5077403;28;45402;-63
2022/11/24 00:28:43;;;;;;;;;5.75;3.00;;;;;10.16;73.88;100307.66;5075203;28;45502;-63
2022/11/24 00:31:19;;;;;;;;;5.50;2.00;;;;;10.21;74.21;100311.09;5072710;28;45359;-63
2022/11/24 00:33:47;;;;;;;;;7.25;4.00;;;;;10.25;73.88;100301.50;5071213;28;45918;-62
2022/11/24 00:36:13;;;;;;;;;5.00;3.00;;;;;10.28;73.33;100289.31;5073013;28;45785;-63
2022/11/24 00:38:39;;;;;;;;;5.00;2.25;;;;;10.30;73.14;100303.25;5072879;28;45800;-64
2022/11/24 00:41:05;;;;;;;;;3.50;1.50;;;;;10.22;73.56;100275.34;5056270;28;45535;-64
2022/11/24 00:43:31;;;;;;;;;4.00;3.00;;;;;10.37;72.94;100285.78;5059837;28;45469;-69
2022/11/24 00:45:57;;;;;;;;;4.50;2.50;;;;;10.25;72.75;100251.75;5072465;27;45646;-63
2022/11/24 00:48:22;;;;;;;;;2.00;2.00;;;;;10.36;72.12;100266.56;5073273;28;45275;-62
2022/11/24 00:50:59;;;;;;;;;5.00;2.75;;;;;10.32;72.41;100261.34;5057691;28;46286;-65
2022/11/24 00:53:26;;;;;;;;;9.00;3.50;;;;;10.33;72.19;100257.88;5072721;27;45389;-64
2022/11/24 00:55:53;;;;;;;;;4.75;2.25;;;;;10.28;72.07;100234.34;5072973;28;45850;-64
2022/11/24 00:58:19;;;;;;;;;4.00;1.50;;;;;10.47;72.26;100278.75;5076225;28;45580;-62
2022/11/24 01:00:45;;;;;;;;;6.50;1.50;;;;;10.35;71.38;100232.56;5073557;27;46291;-63
2022/11/24 01:03:12;;;;;;;;;3.25;2.00;;;;;10.39;70.66;100200.22;5076024;27;45811;-62
2022/11/24 01:05:38;;;;;;;;;1.75;1.75;;;;;10.49;71.33;100258.69;5064332;28;45450;-62
2022/11/24 01:08:05;;;;;;;;;1.00;1.00;;;;;10.42;71.17;100255.22;5060094;28;45513;-64
2022/11/24 01:10:31;;;;;;;;;2.00;1.00;;;;;10.51;70.71;100275.22;5066225;28;45506;-63
2022/11/24 01:12:56;;;;;;;;;3.00;1.00;;;;;10.46;70.19;100267.38;5071223;28;46012;-63
2022/11/24 01:15:22;;;;;;;;;3.00;0.50;;;;;10.51;70.06;100276.13;5079396;27;45526;-63
2022/11/24 01:17:48;;;;;;;;;4.25;1.00;;;;;10.58;69.93;100283.06;5079831;28;45394;-67
2022/11/24 01:20:13;;;;;;;;;4.25;0.75;;;;;10.55;69.28;100284.81;5072856;28;45994;-69
2022/11/24 01:22:42;;;;;;;;;2.25;1.00;;;;;10.55;69.28;100293.53;5056165;28;45441;-69
2022/11/24 01:25:11;;;;;;;;;2.00;0.00;;;;;10.55;69.01;100306.63;5075882;27;45480;-69
2022/11/24 01:27:37;;;;;;;;;1.25;1.00;;;;;10.55;69.01;100326.72;5043789;28;45574;-70
2022/11/24 01:30:04;;;;;;;;;1.50;1.00;;;;;10.54;68.72;100325.00;5065252;28;45743;-67
2022/11/24 01:32:34;;;;;;;;;1.00;0.00;;;;;10.46;68.93;100317.13;5055523;28;45408;-71
2022/11/24 01:35:01;;;;;;;;;2.25;0.50;;;;;10.40;68.93;100311.94;5080378;28;45358;-66
2022/11/24 01:37:26;;;;;;;;;1.00;0.00;;;;;10.50;68.75;100331.09;5075816;28;45276;-68
2022/11/24 01:39:52;;;;;;;;;3.67;0.00;;;;;10.45;68.72;100338.13;5078454;27;45561;-69
2022/11/24 01:42:17;;;;;;;;;0.00;0.00;;;;;10.48;68.01;100354.66;5072718;28;45313;-68
2022/11/24 01:44:43;;;;;;;;;5.50;0.00;;;;;10.28;69.21;100327.66;5068530;28;45564;-68
2022/11/24 01:47:28;;;;;;;;;0.50;0.00;;;;;10.47;68.68;100367.78;5070664;28;45501;-67
2022/11/24 01:49:59;;;;;;;;;0.00;0.00;;;;;10.42;68.72;100373.03;5068678;28;46247;-67
2022/11/24 01:52:28;;;;;;;;;0.00;0.00;;;;;10.46;68.71;100369.50;5076212;27;45472;-62
2022/11/24 01:55:03;;;;;;;;;2.00;0.00;;;;;10.43;69.00;100373.91;5075045;28;45422;-62
2022/11/24 01:57:48;;;;;;;;;0.00;0.00;;;;;10.40;69.58;100377.41;5063416;28;45524;-64
2022/11/24 02:00:14;;;;;;;;;3.00;0.33;;;;;10.33;69.26;100373.91;5060654;28;47782;-67
2022/11/24 02:02:42;;;;;;;;;0.00;0.00;;;;;10.08;69.71;100346.91;5078910;28;45430;-67
2022/11/24 02:05:12;;;;;;;;;0.67;0.00;;;;;10.29;69.87;100384.41;5050993;28;45405;-62
2022/11/24 02:07:37;;;;;;;;;0.00;0.00;;;;;10.25;70.13;100390.47;5055347;28;45360;-62
2022/11/24 02:10:12;;;;;;;;;1.33;0.00;;;;;10.24;70.30;100392.22;5074912;28;46427;-64
2022/11/24 02:12:42;;;;;;;;;2.00;0.00;;;;;9.96;70.69;100353.03;5076758;28;45466;-61
2022/11/24 02:15:09;;;;;;;;;2.00;0.00;;;;;10.18;71.03;100395.75;5079099;28;45312;-62
2022/11/24 02:17:35;;;;;;;;;0.00;0.00;;;;;10.17;71.03;100408.81;5079744;28;45983;-60
2022/11/24 02:20:09;;;;;;;;;2.00;1.00;;;;;9.86;71.21;100377.47;5074733;27;45538;-61
2022/11/24 02:23:12;;;;;;;;;2.00;1.00;;;;;10.10;71.81;100420.16;5056319;28;45448;-61
2022/11/24 02:25:44;;;;;;;;;2.25;0.25;;;;;10.11;71.46;100421.94;5056541;28;45930;-63
2022/11/24 02:28:14;;;;;;;;;0.00;0.00;;;;;10.12;71.54;100427.16;5073134;28;45402;-61
2022/11/24 02:30:40;;;;;;;;;2.00;0.00;;;;;10.05;71.68;100435.88;5074605;27;46327;-61
2022/11/24 02:33:06;;;;;;;;;0.33;0.33;;;;;10.05;71.61;100433.25;5061276;28;45762;-61
2022/11/24 02:35:32;;;;;;;;;0.00;0.00;;;;;10.04;72.06;100444.59;5061896;28;45343;-63
2022/11/24 02:37:58;;;;;;;;;0.75;0.00;;;;;10.06;72.18;100445.47;5072264;28;45489;-62
2022/11/24 02:40:29;;;;;;;;;2.00;2.00;;;;;10.06;72.38;100437.63;5074918;27;46198;-64
2022/11/24 02:43:03;;;;;;;;;1.00;0.50;;;;;10.00;72.27;100442.84;5039971;28;45371;-62
2022/11/24 02:45:30;;;;;;;;;3.00;1.00;;;;;9.96;72.85;100457.66;5075080;28;45324;-62
2022/11/24 02:47:56;;;;;;;;;3.00;1.00;;;;;9.97;72.79;100475.13;5078854;28;45423;-62
2022/11/24 02:50:22;;;;;;;;;1.00;1.00;;;;;9.93;73.08;100473.38;5076063;28;46140;-61
2022/11/24 02:52:47;;;;;;;;;2.50;0.00;;;;;9.97;72.99;100464.66;5074806;28;45428;-63
2022/11/24 02:55:13;;;;;;;;;5.25;1.00;;;;;10.07;73.27;100481.22;5073826;27;45513;-62
2022/11/24 02:57:38;;;;;;;;;2.25;1.00;;;;;10.03;73.33;100489.09;5078697;27;45464;-62
2022/11/24 03:00:04;;;;;;;;;3.75;1.25;;;;;9.97;73.41;100482.97;5074054;28;45652;-61
2022/11/24 03:02:31;;;;;;;;;1.75;1.75;;;;;9.96;73.61;100472.50;5063160;28;45867;-62
2022/11/24 03:04:56;;;;;;;;;1.50;1.00;;;;;10.01;73.56;100496.06;5072380;27;45564;-61
2022/11/24 03:07:22;;;;;;;;;1.00;0.00;;;;;9.98;73.56;100497.78;5074235;28;45454;-67
2022/11/24 03:09:48;;;;;;;;;6.50;2.00;;;;;9.86;73.88;100494.31;5056030;27;47624;-62
2022/11/24 03:12:13;;;;;;;;;2.50;1.00;;;;;9.81;73.91;100493.44;5074076;27;45358;-61
2022/11/24 03:14:39;;;;;;;;;0.50;0.00;;;;;9.98;73.98;100523.97;5077337;27;45398;-62
2022/11/24 03:17:08;;;;;;;;;0.00;0.00;;;;;9.80;74.01;100496.91;5074007;27;45381;-62
2022/11/24 03:19:34;;;;;;;;;0.50;0.00;;;;;10.03;74.01;100547.50;5073905;28;45508;-62
2022/11/24 03:22:00;;;;;;;;;2.00;2.00;;;;;9.96;73.98;100527.44;5073826;28;45672;-62
2022/11/24 03:24:26;;;;;;;;;5.00;0.00;;;;;10.06;74.21;100547.53;5073004;28;45741;-65
2022/11/24 03:26:55;;;;;;;;;1.75;1.75;;;;;10.07;74.24;100549.28;5077347;28;45421;-62
2022/11/24 03:29:21;;;;;;;;;2.50;1.00;;;;;10.02;74.39;100543.16;5073640;28;46122;-62
2022/11/24 03:31:47;;;;;;;;;0.00;0.00;;;;;10.06;74.17;100546.63;5074451;28;45642;-62
2022/11/24 03:34:12;;;;;;;;;2.00;1.00;;;;;10.06;74.11;100544.03;5070125;28;45368;-62
2022/11/24 03:36:38;;;;;;;;;1.00;0.00;;;;;10.05;74.41;100545.78;5063146;28;45407;-66
2022/11/24 03:39:04;;;;;;;;;1.50;1.00;;;;;10.01;74.48;100537.91;5076859;28;46194;-62
2022/11/24 03:41:30;;;;;;;;;5.00;1.25;;;;;10.05;74.00;100553.63;5073804;27;45560;-62
2022/11/24 03:43:55;;;;;;;;;3.75;1.00;;;;;10.05;74.29;100547.53;5074107;28;45485;-62
2022/11/24 03:46:21;;;;;;;;;4.00;1.00;;;;;9.92;74.21;100528.34;5073868;28;45733;-63
2022/11/24 03:48:47;;;;;;;;;2.50;0.25;;;;;9.93;74.15;100530.06;5063745;28;46437;-65
2022/11/24 03:51:12;;;;;;;;;1.00;1.00;;;;;10.02;73.97;100548.41;5072116;27;45425;-62
2022/11/24 03:53:38;;;;;;;;;1.75;0.00;;;;;9.98;73.85;100544.88;5059841;27;45465;-65
2022/11/24 03:56:04;;;;;;;;;1.75;0.00;;;;;10.00;73.98;100546.66;5073562;28;45637;-63
2022/11/24 03:58:30;;;;;;;;;2.00;0.75;;;;;9.69;74.38;100513.47;5066462;27;45391;-61
2022/11/24 04:00:56;;;;;;;;;2.50;0.25;;;;;9.81;74.37;100528.31;5057520;28;45449;-63
2022/11/24 04:03:22;;;;;;;;;2.50;0.25;;;;;9.95;74.20;100560.59;5054425;28;45548;-61
2022/11/24 04:05:48;;;;;;;;;0.25;0.00;;;;;9.98;74.04;100573.66;5053435;28;45539;-61
2022/11/24 04:08:15;;;;;;;;;0.50;0.50;;;;;9.98;73.98;100581.50;5056593;28;45575;-61
2022/11/24 04:10:40;;;;;;;;;0.75;0.00;;;;;9.94;74.51;100569.31;5056425;28;45504;-61
2022/11/24 04:13:18;;;;;;;;;1.50;1.50;;;;;9.91;74.11;100571.03;5053147;28;45470;-61
2022/11/24 04:15:44;;;;;;;;;2.50;1.00;;;;;9.93;74.45;100577.16;5053267;28;45469;-62
2022/11/24 04:18:11;;;;;;;;;1.25;1.00;;;;;9.92;74.17;100575.44;5052988;28;46017;-62
2022/11/24 04:20:37;;;;;;;;;2.25;0.25;;;;;9.86;74.32;100584.13;5055585;28;45406;-64
2022/11/24 04:23:03;;;;;;;;;3.00;1.00;;;;;9.86;74.68;100588.47;5060413;28;45387;-62
2022/11/24 04:25:29;;;;;;;;;0.50;0.50;;;;;9.82;74.71;100581.47;5078020;28;45404;-62
2022/11/24 04:27:55;;;;;;;;;1.50;1.00;;;;;9.77;74.83;100586.69;5077456;27;46157;-64
2022/11/24 04:30:24;;;;;;;;;3.75;1.00;;;;;9.74;75.09;100584.09;5075117;28;45488;-63
2022/11/24 04:32:50;;;;;;;;;1.00;0.50;;;;;9.65;74.81;100582.31;5055506;28;45267;-62
2022/11/24 04:35:15;;;;;;;;;0.75;0.50;;;;;9.73;75.09;100598.91;5063088;28;45474;-62
2022/11/24 04:37:41;;;;;;;;;3.00;1.25;;;;;9.73;74.94;100593.69;5075030;28;46155;-62
2022/11/24 04:40:09;;;;;;;;;2.00;1.00;;;;;9.65;74.94;100587.53;5074497;28;45421;-62
2022/11/24 04:42:34;;;;;;;;;4.25;1.00;;;;;9.67;75.36;100606.72;5072327;28;45537;-62
2022/11/24 04:45:04;;;;;;;;;1.75;1.00;;;;;9.63;75.20;100607.56;5063936;28;45439;-62
2022/11/24 04:47:30;;;;;;;;;4.00;1.00;;;;;9.68;74.87;100615.44;5044768;28;46717;-62
2022/11/24 04:49:56;;;;;;;;;2.00;1.00;;;;;9.58;75.15;100596.22;5073550;28;45930;-63
2022/11/24 04:52:23;;;;;;;;;2.50;0.50;;;;;9.59;75.00;100605.84;5069028;27;45583;-63
2022/11/24 04:54:49;;;;;;;;;3.25;2.00;;;;;9.52;75.31;100601.44;5069490;28;45719;-62
2022/11/24 04:57:16;;;;;;;;;2.25;1.00;;;;;9.59;75.05;100618.91;5062596;28;45595;-62
2022/11/24 04:59:51;;;;;;;;;1.00;1.00;;;;;9.58;75.12;100624.13;5058254;28;45414;-62
2022/11/24 05:02:18;;;;;;;;;5.25;1.50;;;;;9.31;75.24;100579.56;5066321;28;45426;-61
2022/11/24 05:04:49;;;;;;;;;2.00;0.00;;;;;9.59;75.11;100638.97;5058254;28;45446;-68
2022/11/24 05:07:17;;;;;;;;;7.25;2.75;;;;;9.55;75.06;100641.53;5062080;28;45516;-62
2022/11/24 05:12:30;;;;;;;;;2.00;0.25;;;;;9.50;75.08;100624.09;5061706;28;45476;-62
2022/11/24 05:15:00;;;;;;;;;2.00;1.00;;;;;9.58;74.73;100643.28;5065165;27;45484;-62
2022/11/24 05:17:31;;;;;;;;;2.75;0.50;;;;;9.56;75.09;100639.78;5056317;28;46586;-62
2022/11/24 05:19:58;;;;;;;;;0.50;0.50;;;;;9.54;75.03;100638.94;5068173;28;45688;-62
